Time;durP1;ratioP1;P1;durP2;ratioP2;P2;SDS_P1;SDS_P2;PMS_P1;PMS_P2;Temp;Humidity;BMP_temperature;BMP_pressure;BME280_temperature;BME280_humidity;BME280_pressure;Samples;Min_cycle;Max_cycle;Signal;HPM_P1;HPM_P2
2022/11/08 00:01:30;;;;;;;10.55;6.90;;;8.10;99.90;;;;;;4979226;28;20208;-91
2022/11/08 00:03:11;;;;;;;6.50;5.90;;;8.10;99.90;;;;;;4978297;28;20236;-92
2022/11/08 00:13:58;;;;;;;15.55;6.63;;;8.10;99.90;;;;;;4977462;28;20229;-92
2022/11/08 00:16:26;;;;;;;6.65;5.97;;;8.00;99.90;;;;;;4977584;28;20212;-91
2022/11/08 00:18:55;;;;;;;6.75;6.07;;;8.10;99.90;;;;;;4977371;28;20208;-91
2022/11/08 00:21:23;;;;;;;8.38;6.28;;;8.10;99.90;;;;;;4977602;28;20213;-91
2022/11/08 00:23:51;;;;;;;10.52;6.63;;;8.10;99.90;;;;;;4977759;28;20224;-93
2022/11/08 00:26:21;;;;;;;8.95;7.15;;;8.00;99.90;;;;;;4978158;28;20217;-92
2022/11/08 00:28:49;;;;;;;7.70;6.00;;;8.00;99.90;;;;;;4978528;28;20214;-91
2022/11/08 00:31:17;;;;;;;6.95;6.25;;;8.00;99.90;;;;;;4978161;28;20208;-93
2022/11/08 00:33:46;;;;;;;5.82;5.32;;;8.00;99.90;;;;;;4977653;28;20278;-91
2022/11/08 00:36:14;;;;;;;8.20;6.95;;;8.00;99.90;;;;;;4977221;28;20217;-92
2022/11/08 00:38:43;;;;;;;10.65;6.85;;;8.00;99.90;;;;;;4977290;28;20228;-92
2022/11/08 00:41:11;;;;;;;8.15;7.03;;;8.00;99.90;;;;;;4977297;28;20215;-93
2022/11/08 00:43:41;;;;;;;9.07;6.70;;;7.90;99.90;;;;;;4977137;28;20233;-92
2022/11/08 00:46:09;;;;;;;8.60;7.25;;;7.90;99.90;;;;;;4976330;28;20208;-92
2022/11/08 00:48:38;;;;;;;8.25;7.10;;;7.90;99.90;;;;;;4977577;28;20216;-91
2022/11/08 00:51:08;;;;;;;8.50;6.85;;;7.90;99.90;;;;;;4977155;28;20208;-91
2022/11/08 00:53:37;;;;;;;7.35;6.57;;;7.90;99.90;;;;;;4976766;28;20220;-92
2022/11/08 00:56:07;;;;;;;8.90;7.43;;;7.90;99.90;;;;;;4977401;28;20219;-92
2022/11/08 00:58:35;;;;;;;10.32;8.60;;;7.90;99.90;;;;;;4977481;28;20220;-93
2022/11/08 01:01:11;;;;;;;9.15;6.85;;;7.90;99.90;;;;;;4976545;28;20223;-93
2022/11/08 01:03:40;;;;;;;7.90;6.88;;;7.90;99.90;;;;;;4976017;28;20232;-93
2022/11/08 01:06:10;;;;;;;9.25;8.15;;;7.80;99.90;;;;;;4983923;28;20218;-92
2022/11/08 01:08:38;;;;;;;8.70;7.15;;;7.80;99.90;;;;;;4976610;28;20208;-90
2022/11/08 01:11:11;;;;;;;11.23;8.32;;;7.90;99.90;;;;;;4977281;28;20216;-92
2022/11/08 01:13:39;;;;;;;8.20;6.72;;;7.80;99.90;;;;;;4977074;28;20320;-91
2022/11/08 01:16:11;;;;;;;6.18;5.68;;;7.70;99.90;;;;;;4977214;28;20216;-91
2022/11/08 01:18:40;;;;;;;7.50;6.25;;;7.70;99.90;;;;;;4976710;28;20220;-92
2022/11/08 01:21:09;;;;;;;8.18;6.70;;;7.70;99.90;;;;;;4976798;28;20212;-92
2022/11/08 01:23:38;;;;;;;8.27;6.93;;;7.60;99.90;;;;;;4976095;28;20231;-92
2022/11/08 01:26:09;;;;;;;11.18;5.25;;;7.50;99.90;;;;;;4976698;28;20211;-92
2022/11/08 01:28:37;;;;;;;5.88;5.07;;;7.60;99.90;;;;;;4976094;28;20205;-93
2022/11/08 01:31:07;;;;;;;7.07;6.38;;;7.60;99.90;;;;;;4976082;28;20212;-93
2022/11/08 01:33:37;;;;;;;9.57;7.15;;;7.60;99.90;;;;;;4977571;28;20224;-93
2022/11/08 01:36:06;;;;;;;6.50;5.90;;;7.50;99.90;;;;;;4976208;28;20218;-93
2022/11/08 01:38:35;;;;;;;5.90;4.97;;;7.50;99.90;;;;;;4975710;28;20308;-93
2022/11/08 01:41:04;;;;;;;10.07;5.28;;;7.50;99.90;;;;;;4975768;28;20227;-93
2022/11/08 01:43:39;;;;;;;8.93;5.43;;;7.50;99.90;;;;;;4975761;28;20269;-92
2022/11/08 01:46:33;;;;;;;5.93;5.32;;;7.50;99.90;;;;;;4980943;28;20296;-93
2022/11/08 01:49:34;;;;;;;5.45;3.78;;;7.40;99.90;;;;;;4976179;28;20219;-90
2022/11/08 01:52:31;;;;;;;6.07;4.97;;;7.30;99.90;;;;;;4975302;28;20209;-91
2022/11/08 01:55:08;;;;;;;5.05;4.65;;;7.30;99.90;;;;;;4975198;28;20224;-92
2022/11/08 01:57:42;;;;;;;4.18;3.80;;;7.30;99.90;;;;;;4975167;28;20208;-93
2022/11/08 02:00:12;;;;;;;3.78;3.47;;;7.20;99.90;;;;;;4975520;28;20239;-91
2022/11/08 02:02:43;;;;;;;6.68;3.65;;;7.20;99.90;;;;;;4975228;28;20216;-92
2022/11/08 02:08:03;;;;;;;7.07;4.72;;;7.00;99.90;;;;;;4974659;28;20205;-92
2022/11/08 02:10:35;;;;;;;3.95;3.53;;;6.90;99.90;;;;;;4975171;28;20209;-93
2022/11/08 02:13:07;;;;;;;3.25;2.97;;;6.90;99.90;;;;;;4974643;28;20288;-93
2022/11/08 02:15:41;;;;;;;4.18;3.65;;;6.80;99.90;;;;;;4974983;28;20236;-92
2022/11/08 02:18:10;;;;;;;4.07;3.65;;;6.80;99.90;;;;;;4975116;28;20212;-92
2022/11/08 02:20:40;;;;;;;5.90;4.07;;;6.80;99.90;;;;;;4974983;28;20245;-92
2022/11/08 02:23:17;;;;;;;4.95;4.15;;;6.80;99.90;;;;;;4974605;28;20232;-93
2022/11/08 02:25:47;;;;;;;9.45;5.30;;;6.80;99.90;;;;;;4974531;28;20203;-92
2022/11/08 02:28:16;;;;;;;6.55;4.03;;;6.80;99.90;;;;;;4974567;28;20207;-93
2022/11/08 02:30:45;;;;;;;4.03;3.70;;;6.80;99.90;;;;;;4974735;28;20205;-93
2022/11/08 02:33:18;;;;;;;3.90;3.60;;;6.90;99.90;;;;;;4974678;28;20300;-92
2022/11/08 02:35:49;;;;;;;5.80;4.32;;;6.90;99.90;;;;;;4974443;28;20239;-93
2022/11/08 02:38:18;;;;;;;4.72;4.32;;;6.90;99.90;;;;;;4974583;28;20208;-92
2022/11/08 02:40:50;;;;;;;5.40;4.75;;;7.00;99.90;;;;;;4974760;28;20208;-92
2022/11/08 02:43:19;;;;;;;5.28;4.78;;;7.00;99.90;;;;;;4974541;28;20236;-92
2022/11/08 02:45:49;;;;;;;6.05;4.95;;;6.90;99.90;;;;;;4974371;28;20224;-93
2022/11/08 02:48:18;;;;;;;3.97;3.60;;;7.00;99.90;;;;;;4974179;28;20213;-93
2022/11/08 02:50:47;;;;;;;4.05;3.70;;;7.00;99.90;;;;;;4974130;28;20239;-91
2022/11/08 02:53:16;;;;;;;4.90;4.40;;;7.00;99.90;;;;;;4974494;28;20231;-93
2022/11/08 02:55:44;;;;;;;5.75;5.20;;;7.00;99.90;;;;;;4974054;28;20228;-92
2022/11/08 02:58:14;;;;;;;4.68;4.32;;;7.00;99.90;;;;;;4974052;28;20211;-92
2022/11/08 03:00:43;;;;;;;4.20;3.90;;;6.90;99.90;;;;;;4974087;28;20208;-93
2022/11/08 03:03:13;;;;;;;4.65;4.13;;;6.90;99.90;;;;;;4974240;28;20295;-93
2022/11/08 03:05:42;;;;;;;3.92;3.47;;;6.90;99.90;;;;;;4974047;28;20215;-93
2022/11/08 03:08:10;;;;;;;3.25;3.00;;;6.80;99.90;;;;;;4974318;28;20204;-93
2022/11/08 03:10:39;;;;;;;5.65;3.67;;;6.80;99.90;;;;;;4974052;28;20204;-92
2022/11/08 03:13:07;;;;;;;4.78;4.07;;;6.80;99.90;;;;;;4974219;28;20236;-92
2022/11/08 03:15:37;;;;;;;3.85;3.55;;;6.80;99.90;;;;;;4974097;28;20229;-92
2022/11/08 03:18:06;;;;;;;7.47;4.25;;;6.70;99.90;;;;;;4974035;28;20208;-92
2022/11/08 03:20:34;;;;;;;5.68;3.60;;;6.70;99.90;;;;;;4974255;28;20212;-92
2022/11/08 03:23:04;;;;;;;3.95;3.65;;;6.90;99.90;;;;;;4973723;28;20232;-92
2022/11/08 03:25:33;;;;;;;5.50;4.10;;;6.80;99.90;;;;;;4973067;28;20212;-93
2022/11/08 03:28:05;;;;;;;4.32;3.92;;;6.80;99.90;;;;;;4974418;28;20219;-92
2022/11/08 03:30:33;;;;;;;4.72;3.83;;;6.80;99.90;;;;;;4973816;28;20211;-93
2022/11/08 03:33:04;;;;;;;4.35;3.95;;;6.90;99.90;;;;;;4973912;28;20236;-93
2022/11/08 03:35:32;;;;;;;5.55;4.40;;;6.80;99.90;;;;;;4973707;28;20228;-92
2022/11/08 03:38:00;;;;;;;5.32;4.82;;;6.80;99.90;;;;;;4973722;28;20210;-93
2022/11/08 03:40:29;;;;;;;6.07;4.95;;;6.70;99.90;;;;;;4973637;28;20209;-93
2022/11/08 03:42:57;;;;;;;5.28;4.78;;;6.80;99.90;;;;;;4973920;28;20231;-92
2022/11/08 03:45:26;;;;;;;5.57;5.07;;;6.70;99.90;;;;;;4973838;28;20206;-92
2022/11/08 03:47:54;;;;;;;5.65;5.18;;;6.70;99.90;;;;;;4973318;28;20208;-93
2022/11/08 03:50:24;;;;;;;12.27;7.53;;;6.70;99.90;;;;;;4973927;28;20212;-92
2022/11/08 03:52:53;;;;;;;9.00;6.60;;;6.70;99.90;;;;;;4973664;28;20228;-92
2022/11/08 03:55:24;;;;;;;7.47;6.70;;;6.70;99.90;;;;;;4973634;28;20232;-94
2022/11/08 03:57:52;;;;;;;6.57;5.70;;;6.60;99.90;;;;;;4973564;28;20227;-93
2022/11/08 04:00:23;;;;;;;5.85;5.35;;;6.60;99.90;;;;;;4973568;28;20204;-93
2022/11/08 04:02:51;;;;;;;8.52;6.95;;;6.70;99.90;;;;;;4973204;28;20246;-93
2022/11/08 04:05:19;;;;;;;9.10;7.10;;;6.70;99.90;;;;;;4973896;28;20217;-93
2022/11/08 04:07:49;;;;;;;8.75;7.68;;;6.60;99.90;;;;;;4973432;28;20220;-92
2022/11/08 04:10:18;;;;;;;7.88;7.07;;;6.70;99.90;;;;;;4973611;28;20211;-93
2022/11/08 04:15:32;;;;;;;7.78;7.00;;;6.60;99.90;;;;;;4978226;28;20228;-93
2022/11/08 04:23:38;;;;;;;7.75;7.05;;;6.60;99.90;;;;;;4973101;28;20230;-92
2022/11/08 04:26:10;;;;;;;6.93;6.18;;;6.50;99.90;;;;;;4973635;28;20211;-92
2022/11/08 04:28:40;;;;;;;8.65;7.10;;;6.50;99.90;;;;;;4973151;28;20204;-91
2022/11/08 04:31:10;;;;;;;6.75;6.05;;;6.50;99.90;;;;;;4973503;28;20205;-91
2022/11/08 04:33:39;;;;;;;7.38;6.55;;;6.50;99.90;;;;;;4973266;28;20225;-91
2022/11/08 04:36:09;;;;;;;11.85;6.50;;;6.50;99.90;;;;;;4973578;28;20239;-91
2022/11/08 04:38:39;;;;;;;6.35;5.75;;;6.50;99.90;;;;;;4976726;28;20227;-92
2022/11/08 04:41:10;;;;;;;7.00;6.40;;;6.60;99.90;;;;;;4976650;28;20217;-92
2022/11/08 04:43:38;;;;;;;7.07;6.40;;;6.50;99.90;;;;;;4976841;28;20216;-91
2022/11/08 04:46:08;;;;;;;9.88;8.90;;;6.50;99.90;;;;;;4976545;28;20205;-91
2022/11/08 04:48:37;;;;;;;12.73;10.52;;;6.60;99.90;;;;;;4976178;28;20212;-92
2022/11/08 04:51:07;;;;;;;13.85;11.70;;;6.50;99.90;;;;;;4976625;28;20232;-92
2022/11/08 04:53:35;;;;;;;14.65;13.18;;;6.50;99.90;;;;;;4976343;28;20229;-91
2022/11/08 04:56:07;;;;;;;19.02;15.63;;;6.60;99.90;;;;;;4976516;28;20239;-92
2022/11/08 04:58:37;;;;;;;21.98;14.43;;;6.60;99.90;;;;;;4976731;28;20307;-92
2022/11/08 05:01:07;;;;;;;16.52;14.77;;;6.60;99.90;;;;;;4976226;28;20208;-92
2022/11/08 05:03:36;;;;;;;21.70;17.08;;;6.60;99.90;;;;;;4976249;28;20236;-91
2022/11/08 05:06:07;;;;;;;20.00;16.73;;;6.60;99.90;;;;;;4976569;28;20204;-92
2022/11/08 05:08:35;;;;;;;22.45;16.35;;;6.60;99.90;;;;;;4976106;28;20208;-92
2022/11/08 05:11:06;;;;;;;16.45;14.73;;;6.60;99.90;;;;;;4976188;28;20204;-92
2022/11/08 05:13:35;;;;;;;22.40;14.77;;;6.60;99.90;;;;;;4976418;28;20240;-92
2022/11/08 05:16:06;;;;;;;24.75;15.45;;;6.70;99.90;;;;;;4975959;28;20220;-92
2022/11/08 05:18:35;;;;;;;24.75;14.05;;;6.60;99.90;;;;;;4976385;28;20212;-92
2022/11/08 05:23:50;;;;;;;17.48;13.68;;;6.60;99.90;;;;;;4975776;28;20319;-92
2022/11/08 05:26:20;;;;;;;15.57;13.48;;;6.50;99.90;;;;;;4975583;28;20287;-93
2022/11/08 05:28:48;;;;;;;13.80;12.40;;;6.60;99.90;;;;;;4975687;28;20272;-93
2022/11/08 05:31:17;;;;;;;14.32;12.45;;;6.50;99.90;;;;;;4975953;28;20213;-92
2022/11/08 05:33:46;;;;;;;18.75;13.20;;;6.60;99.90;;;;;;4975612;28;20229;-92
2022/11/08 05:36:16;;;;;;;14.70;13.18;;;6.50;99.90;;;;;;4975667;28;20224;-92
2022/11/08 05:38:45;;;;;;;16.75;13.10;;;6.50;99.90;;;;;;4975732;28;20304;-93
2022/11/08 05:41:15;;;;;;;24.40;14.65;;;6.50;99.90;;;;;;4975477;28;20215;-93
2022/11/08 05:43:46;;;;;;;16.65;14.07;;;6.40;99.90;;;;;;4975497;28;20428;-92
2022/11/08 05:46:15;;;;;;;16.27;13.98;;;6.40;99.90;;;;;;4975127;28;20208;-92
2022/11/08 05:48:45;;;;;;;15.93;13.35;;;6.40;99.90;;;;;;4974535;28;20211;-92
2022/11/08 05:51:14;;;;;;;19.08;13.45;;;6.40;99.90;;;;;;4975587;28;20263;-93
2022/11/08 05:53:43;;;;;;;21.52;14.02;;;6.40;99.90;;;;;;4975128;28;20228;-93
2022/11/08 05:56:12;;;;;;;13.73;12.30;;;6.40;99.90;;;;;;4975342;28;20239;-92
2022/11/08 05:58:40;;;;;;;12.80;11.40;;;6.30;99.90;;;;;;4975101;28;20211;-92
2022/11/08 06:01:12;;;;;;;22.73;11.60;;;6.20;99.90;;;;;;4983076;28;20287;-93
2022/11/08 06:03:40;;;;;;;21.65;12.15;;;6.40;99.90;;;;;;4975389;28;20236;-92
2022/11/08 06:06:11;;;;;;;13.63;11.88;;;6.30;99.90;;;;;;4975098;28;20204;-92
2022/11/08 06:08:40;;;;;;;14.95;12.10;;;6.20;99.90;;;;;;4975073;28;20389;-92
2022/11/08 06:11:16;;;;;;;15.00;12.23;;;6.20;99.90;;;;;;4975139;28;20216;-92
2022/11/08 06:13:45;;;;;;;15.85;13.02;;;6.20;99.90;;;;;;4975128;28;20237;-92
2022/11/08 06:16:16;;;;;;;15.77;11.45;;;6.20;99.90;;;;;;4974882;28;20224;-92
2022/11/08 06:18:45;;;;;;;15.63;13.10;;;6.20;99.90;;;;;;4974383;28;20216;-91
2022/11/08 06:21:16;;;;;;;14.70;13.07;;;6.30;99.90;;;;;;4975028;28;20207;-92
2022/11/08 06:23:45;;;;;;;29.85;12.70;;;6.30;99.90;;;;;;4974464;28;20236;-91
2022/11/08 06:26:13;;;;;;;19.02;13.30;;;6.30;99.90;;;;;;4974836;28;20200;-91
2022/11/08 06:28:41;;;;;;;18.80;13.43;;;6.20;99.90;;;;;;4974443;28;20208;-92
2022/11/08 06:31:10;;;;;;;16.60;13.38;;;6.20;99.90;;;;;;4975025;28;20216;-92
2022/11/08 06:33:39;;;;;;;13.85;12.48;;;6.20;99.90;;;;;;4974648;28;20228;-91
2022/11/08 06:36:08;;;;;;;17.17;14.00;;;6.20;99.90;;;;;;4974977;28;20220;-92
2022/11/08 06:38:36;;;;;;;16.83;14.40;;;6.20;99.90;;;;;;4974630;28;20204;-92
2022/11/08 06:41:04;;;;;;;29.10;15.20;;;6.20;99.90;;;;;;4974881;28;20205;-93
2022/11/08 06:43:33;;;;;;;24.15;15.95;;;6.20;99.90;;;;;;4979191;28;20234;-91
2022/11/08 06:46:02;;;;;;;15.40;13.80;;;6.20;99.90;;;;;;4974771;28;20208;-92
2022/11/08 06:48:30;;;;;;;23.08;16.27;;;6.20;99.90;;;;;;4974238;28;20283;-92
2022/11/08 06:51:05;;;;;;;20.85;15.15;;;6.20;99.90;;;;;;4974836;28;20204;-92
2022/11/08 06:53:33;;;;;;;26.05;18.08;;;6.20;99.90;;;;;;4974280;28;20238;-93
2022/11/08 06:56:02;;;;;;;17.92;15.80;;;6.20;99.90;;;;;;4974265;28;20208;-92
2022/11/08 06:58:31;;;;;;;18.20;16.05;;;6.20;99.90;;;;;;4974106;28;20212;-92
2022/11/08 07:01:03;;;;;;;18.55;16.33;;;6.20;99.90;;;;;;4974327;28;20205;-93
2022/11/08 07:03:31;;;;;;;19.00;16.95;;;6.30;99.90;;;;;;4974099;28;20236;-91
2022/11/08 07:06:02;;;;;;;22.38;16.95;;;6.40;99.90;;;;;;4974104;28;20230;-92
2022/11/08 07:08:32;;;;;;;23.48;16.95;;;6.40;99.90;;;;;;4974212;28;20239;-92
2022/11/08 07:11:01;;;;;;;20.73;17.58;;;6.40;99.90;;;;;;4974075;28;20242;-91
2022/11/08 07:13:30;;;;;;;20.40;17.15;;;6.50;99.90;;;;;;4973897;28;20228;-91
2022/11/08 07:15:59;;;;;;;24.52;18.55;;;6.50;99.90;;;;;;4974276;28;20212;-92
2022/11/08 07:18:28;;;;;;;24.17;18.80;;;6.50;99.90;;;;;;4973962;28;20227;-93
2022/11/08 07:21:01;;;;;;;23.65;17.85;;;6.60;99.90;;;;;;4974139;28;20219;-92
2022/11/08 07:23:29;;;;;;;22.58;18.63;;;6.60;99.90;;;;;;4973811;28;20225;-92
2022/11/08 07:26:02;;;;;;;35.67;21.77;;;6.60;99.90;;;;;;4973760;28;20212;-92
2022/11/08 07:28:31;;;;;;;30.77;21.75;;;6.60;99.90;;;;;;4973730;28;20215;-92
2022/11/08 07:31:01;;;;;;;28.50;22.15;;;6.70;99.90;;;;;;4973862;28;20209;-92
2022/11/08 07:33:31;;;;;;;29.10;22.50;;;6.70;99.90;;;;;;4973809;28;20315;-93
2022/11/08 07:35:59;;;;;;;32.85;22.67;;;6.70;99.90;;;;;;4973960;28;20208;-92
2022/11/08 07:38:27;;;;;;;31.15;21.75;;;6.80;99.90;;;;;;4973440;28;20235;-92
2022/11/08 07:40:57;;;;;;;35.60;24.67;;;6.90;99.90;;;;;;4974095;28;20216;-92
2022/11/08 07:43:29;;;;;;;25.65;22.35;;;6.90;99.90;;;;;;4974110;28;20319;-92
2022/11/08 07:45:59;;;;;;;26.42;22.60;;;6.90;99.90;;;;;;4973678;28;20232;-93
2022/11/08 07:48:29;;;;;;;28.92;21.02;;;6.90;99.90;;;;;;4973309;28;20207;-92
2022/11/08 07:50:57;;;;;;;29.10;22.67;;;6.80;99.90;;;;;;4973656;28;20212;-93
2022/11/08 07:53:26;;;;;;;24.08;21.52;;;6.90;99.90;;;;;;4973517;28;20243;-92
2022/11/08 07:55:54;;;;;;;30.75;22.08;;;7.00;99.90;;;;;;4973879;28;20214;-91
2022/11/08 07:58:22;;;;;;;25.15;21.50;;;6.90;99.90;;;;;;4973101;28;20235;-92
2022/11/08 08:00:52;;;;;;;22.80;19.95;;;7.00;99.90;;;;;;4973959;28;20211;-92
2022/11/08 08:03:20;;;;;;;24.80;20.80;;;7.00;99.90;;;;;;4973587;28;20247;-92
2022/11/08 08:05:53;;;;;;;31.10;22.13;;;7.10;99.90;;;;;;4973516;28;20255;-92
2022/11/08 08:08:28;;;;;;;42.15;22.85;;;7.10;99.90;;;;;;4973592;28;20201;-93
2022/11/08 08:10:59;;;;;;;33.53;24.15;;;7.10;99.90;;;;;;4973919;28;20208;-92
2022/11/08 08:13:27;;;;;;;26.95;22.70;;;7.10;99.90;;;;;;4977157;28;20228;-92
2022/11/08 08:16:00;;;;;;;25.80;22.15;;;7.10;99.90;;;;;;4977080;28;20212;-92
2022/11/08 08:18:29;;;;;;;33.95;23.40;;;7.10;99.90;;;;;;4976806;28;20232;-92
2022/11/08 08:20:58;;;;;;;32.33;23.70;;;7.10;99.90;;;;;;4977060;28;20213;-92
2022/11/08 08:23:26;;;;;;;25.33;20.85;;;7.10;99.90;;;;;;4976710;28;20239;-92
2022/11/08 08:25:55;;;;;;;31.50;23.30;;;7.10;99.90;;;;;;4976980;28;20216;-92
2022/11/08 08:28:24;;;;;;;27.35;22.73;;;7.10;99.90;;;;;;4976739;28;20204;-91
2022/11/08 08:30:52;;;;;;;27.98;22.30;;;7.20;99.90;;;;;;4976822;28;20213;-92
2022/11/08 08:33:22;;;;;;;31.15;23.20;;;7.20;99.90;;;;;;4977398;28;20236;-91
2022/11/08 08:35:59;;;;;;;30.35;22.15;;;7.10;99.90;;;;;;4977095;28;20215;-92
2022/11/08 08:38:29;;;;;;;30.30;23.35;;;7.20;99.90;;;;;;4976235;28;20234;-92
2022/11/08 08:40:57;;;;;;;29.52;21.25;;;7.20;99.90;;;;;;4976718;28;20220;-92
2022/11/08 08:43:27;;;;;;;29.15;23.15;;;7.20;99.90;;;;;;4976494;28;20260;-92
2022/11/08 08:45:59;;;;;;;34.60;23.95;;;7.30;99.90;;;;;;4976726;28;20208;-91
2022/11/08 08:48:29;;;;;;;26.13;23.10;;;7.30;99.90;;;;;;4976967;28;20213;-92
2022/11/08 08:50:57;;;;;;;28.02;22.73;;;7.40;99.90;;;;;;4976602;28;20209;-92
2022/11/08 08:53:26;;;;;;;23.83;21.33;;;7.40;99.90;;;;;;4976466;28;20243;-92
2022/11/08 08:55:54;;;;;;;31.02;22.50;;;7.30;99.90;;;;;;4976765;28;20211;-92
2022/11/08 08:58:23;;;;;;;24.83;22.10;;;7.40;99.90;;;;;;4976240;28;20231;-93
2022/11/08 09:00:51;;;;;;;25.55;22.35;;;7.40;99.90;;;;;;4976559;28;20200;-92
2022/11/08 09:03:41;;;;;;;28.83;23.15;;;7.40;99.90;;;;;;4976177;28;20232;-92
2022/11/08 09:06:10;;;;;;;28.75;21.92;;;7.40;99.90;;;;;;4975886;28;20200;-92
2022/11/08 09:08:38;;;;;;;27.20;22.77;;;7.30;99.90;;;;;;4976164;28;20211;-92
2022/11/08 09:11:06;;;;;;;24.83;21.77;;;7.30;99.90;;;;;;4976283;28;20212;-91
2022/11/08 09:13:35;;;;;;;26.85;20.50;;;7.40;99.90;;;;;;4976328;28;20228;-91
2022/11/08 09:16:04;;;;;;;29.00;22.88;;;7.30;99.90;;;;;;4976618;28;20209;-92
2022/11/08 09:18:32;;;;;;;27.02;22.60;;;7.40;99.90;;;;;;4975792;28;20220;-90
2022/11/08 09:21:04;;;;;;;24.73;21.42;;;7.40;99.90;;;;;;4976612;28;20212;-91
2022/11/08 09:23:32;;;;;;;28.02;21.70;;;7.40;99.90;;;;;;4975272;28;20238;-91
2022/11/08 09:26:02;;;;;;;25.73;20.88;;;7.40;99.90;;;;;;4976272;28;20216;-92
2022/11/08 09:28:32;;;;;;;36.65;21.27;;;7.50;99.90;;;;;;4975822;28;20239;-90
2022/11/08 09:31:02;;;;;;;25.38;20.95;;;7.50;99.90;;;;;;4975681;28;20216;-91
2022/11/08 09:33:31;;;;;;;26.17;21.17;;;7.50;99.90;;;;;;4976008;28;20228;-91
2022/11/08 09:36:01;;;;;;;23.45;20.92;;;7.50;99.90;;;;;;4975930;28;20259;-92
2022/11/08 09:38:29;;;;;;;23.85;19.92;;;7.50;99.90;;;;;;4979565;28;20232;-92
2022/11/08 09:41:17;;;;;;;22.88;20.45;;;7.50;99.90;;;;;;4976065;28;20220;-91
2022/11/08 09:44:05;;;;;;;26.63;21.33;;;7.40;99.90;;;;;;4976050;28;20224;-89
2022/11/08 09:46:39;;;;;;;26.25;18.77;;;7.50;99.90;;;;;;4975787;28;20212;-93
2022/11/08 09:49:17;;;;;;;23.52;20.20;;;7.40;99.90;;;;;;4975556;28;20204;-93
2022/11/08 09:51:47;;;;;;;27.13;22.38;;;7.50;99.90;;;;;;4975610;28;20208;-92
2022/11/08 09:54:20;;;;;;;23.13;20.73;;;7.40;99.90;;;;;;4975691;28;20239;-92
2022/11/08 09:56:51;;;;;;;27.63;20.05;;;7.40;99.90;;;;;;4975301;28;20212;-91
2022/11/08 09:59:30;;;;;;;24.77;20.05;;;7.50;99.90;;;;;;4975264;28;20224;-93
2022/11/08 10:01:58;;;;;;;24.25;20.60;;;7.40;99.90;;;;;;4975360;28;20211;-92
2022/11/08 10:04:30;;;;;;;25.52;21.63;;;7.40;99.90;;;;;;4975103;28;20232;-92
2022/11/08 10:07:12;;;;;;;25.58;20.15;;;7.40;99.90;;;;;;4975374;28;20205;-92
2022/11/08 10:10:04;;;;;;;26.00;20.10;;;7.40;99.90;;;;;;4975250;28;20208;-93
2022/11/08 10:12:40;;;;;;;31.42;21.50;;;7.40;99.90;;;;;;4975325;28;20208;-92
2022/11/08 10:15:21;;;;;;;31.00;21.58;;;7.50;99.90;;;;;;4974895;28;20212;-92
2022/11/08 10:18:30;;;;;;;21.27;19.05;;;7.60;99.90;;;;;;4974882;28;20222;-92
2022/11/08 10:21:05;;;;;;;27.38;21.70;;;7.50;99.90;;;;;;4915618;29;20254;-91
2022/11/08 10:23:42;;;;;;;28.27;21.75;;;7.60;99.90;;;;;;4968753;28;20236;-92
2022/11/08 10:26:16;;;;;;;24.70;21.17;;;7.60;99.90;;;;;;4974706;28;20212;-92
2022/11/08 10:28:50;;;;;;;27.80;21.85;;;7.60;99.90;;;;;;4974500;28;20291;-91
2022/11/08 10:31:19;;;;;;;24.50;21.90;;;7.60;99.90;;;;;;4974869;28;20219;-91
2022/11/08 10:33:51;;;;;;;29.00;22.45;;;7.70;99.90;;;;;;4974624;28;20238;-92
2022/11/08 10:36:28;;;;;;;35.45;23.80;;;7.70;99.90;;;;;;4974909;28;20259;-92
2022/11/08 10:39:02;;;;;;;29.30;22.35;;;7.80;99.90;;;;;;4974516;28;20225;-91
2022/11/08 10:41:39;;;;;;;27.38;21.27;;;7.80;99.90;;;;;;4974587;28;20214;-91
2022/11/08 10:44:14;;;;;;;26.05;20.70;;;7.80;99.90;;;;;;4974561;28;20240;-92
2022/11/08 10:46:45;;;;;;;30.30;20.15;;;7.90;99.90;;;;;;4974333;28;20218;-92
2022/11/08 10:49:19;;;;;;;31.92;22.13;;;7.80;99.90;;;;;;4974748;28;20217;-92
2022/11/08 10:51:50;;;;;;;26.92;22.20;;;7.90;99.90;;;;;;4974524;28;20212;-91
2022/11/08 10:54:42;;;;;;;32.45;21.98;;;7.90;99.90;;;;;;4978492;28;20243;-91
2022/11/08 10:57:13;;;;;;;28.88;22.10;;;7.90;99.90;;;;;;4974948;28;20215;-92
2022/11/08 10:59:42;;;;;;;23.02;19.52;;;7.90;99.90;;;;;;4974799;28;20232;-93
2022/11/08 11:02:19;;;;;;;27.02;21.13;;;7.90;99.90;;;;;;4974272;28;20215;-91
2022/11/08 11:04:48;;;;;;;25.02;19.63;;;7.90;99.90;;;;;;4973964;28;20242;-93
2022/11/08 11:07:29;;;;;;;23.42;18.63;;;7.90;99.90;;;;;;4973803;28;20209;-92
2022/11/08 11:10:16;;;;;;;20.30;17.88;;;7.80;99.90;;;;;;4973845;28;20216;-92
2022/11/08 11:12:50;;;;;;;21.05;15.93;;;7.80;99.90;;;;;;4974205;28;20216;-91
2022/11/08 11:15:19;;;;;;;21.40;16.80;;;7.80;99.90;;;;;;4973954;28;20216;-91
2022/11/08 11:17:47;;;;;;;19.65;17.15;;;7.80;99.90;;;;;;4973982;28;20215;-92
2022/11/08 11:20:21;;;;;;;19.98;17.55;;;7.80;99.90;;;;;;4973880;28;20228;-92
2022/11/08 11:22:51;;;;;;;22.65;19.33;;;7.80;99.90;;;;;;4973901;28;20228;-92
2022/11/08 11:25:22;;;;;;;21.92;18.10;;;7.90;99.90;;;;;;4973668;28;20304;-91
2022/11/08 11:27:55;;;;;;;28.58;16.90;;;7.90;99.90;;;;;;4973629;28;20228;-92
2022/11/08 11:30:28;;;;;;;22.23;19.33;;;7.90;99.90;;;;;;4973728;28;20204;-91
2022/11/08 11:33:00;;;;;;;20.10;16.20;;;7.90;99.90;;;;;;4974159;28;20311;-92
2022/11/08 11:35:37;;;;;;;21.63;17.60;;;8.00;99.90;;;;;;4973777;28;20223;-91
2022/11/08 11:38:13;;;;;;;21.48;18.10;;;8.00;99.90;;;;;;4974248;28;20236;-92
2022/11/08 11:40:46;;;;;;;20.42;17.13;;;8.00;99.90;;;;;;4973577;28;20230;-92
2022/11/08 11:43:24;;;;;;;21.70;18.05;;;8.10;99.90;;;;;;4973791;28;20225;-92
2022/11/08 11:45:56;;;;;;;27.25;18.17;;;8.10;99.90;;;;;;4973644;28;20208;-92
2022/11/08 11:48:29;;;;;;;23.33;17.20;;;8.10;99.90;;;;;;4976761;28;20204;-92
2022/11/08 11:50:57;;;;;;;24.52;16.50;;;8.20;99.90;;;;;;4977274;28;20294;-92
2022/11/08 11:53:28;;;;;;;23.85;16.52;;;8.20;99.90;;;;;;4977690;28;20231;-92
2022/11/08 11:56:41;;;;;;;22.45;17.52;;;8.30;99.90;;;;;;4977039;28;20211;-92
2022/11/08 11:59:31;;;;;;;17.58;15.35;;;8.30;99.90;;;;;;4977092;28;20228;-92
2022/11/08 12:02:41;;;;;;;19.42;16.02;;;8.30;99.90;;;;;;4977303;28;20240;-94
2022/11/08 12:05:22;;;;;;;20.58;17.13;;;8.40;99.90;;;;;;4961699;28;20212;-92
2022/11/08 12:07:58;;;;;;;22.15;16.48;;;8.50;99.90;;;;;;4976996;28;20215;-92
2022/11/08 12:10:34;;;;;;;22.77;16.30;;;8.40;99.90;;;;;;4977391;28;20215;-92
2022/11/08 12:13:12;;;;;;;23.20;17.38;;;8.40;99.90;;;;;;4977392;28;20235;-93
2022/11/08 12:15:48;;;;;;;23.98;16.92;;;8.30;99.90;;;;;;4976890;28;20208;-92
2022/11/08 12:18:55;;;;;;;22.80;17.85;;;8.40;99.90;;;;;;4976993;28;20204;-92
2022/11/08 12:21:32;;;;;;;27.30;17.83;;;8.40;99.90;;;;;;4976846;28;20201;-91
2022/11/08 12:24:19;;;;;;;24.30;17.80;;;8.30;99.90;;;;;;4976576;28;20234;-92
2022/11/08 12:26:55;;;;;;;27.80;19.08;;;8.40;99.90;;;;;;4976732;28;20223;-92
2022/11/08 12:29:29;;;;;;;22.63;17.98;;;8.40;99.90;;;;;;4976783;28;20219;-92
2022/11/08 12:32:13;;;;;;;21.38;18.75;;;8.40;99.90;;;;;;4977139;28;20208;-92
2022/11/08 12:34:52;;;;;;;22.45;17.30;;;8.40;99.90;;;;;;4976754;28;20225;-92
2022/11/08 12:37:33;;;;;;;19.35;16.63;;;8.40;99.90;;;;;;4976660;28;20208;-92
2022/11/08 12:40:14;;;;;;;19.73;16.35;;;8.40;99.90;;;;;;4976441;28;20235;-92
2022/11/08 12:42:57;;;;;;;24.05;17.60;;;8.30;99.90;;;;;;4976396;28;20310;-92
2022/11/08 12:45:48;;;;;;;19.02;16.42;;;8.30;99.90;;;;;;4976954;28;20290;-92
2022/11/08 12:48:27;;;;;;;18.67;16.67;;;8.30;99.90;;;;;;4973460;28;20206;-92
2022/11/08 12:51:04;;;;;;;20.05;17.60;;;8.30;99.90;;;;;;4976448;28;20215;-92
2022/11/08 12:53:58;;;;;;;20.98;16.85;;;8.30;99.90;;;;;;4976331;28;20242;-92
2022/11/08 12:56:33;;;;;;;19.77;17.30;;;8.40;99.90;;;;;;4976150;28;20234;-93
2022/11/08 12:59:02;;;;;;;18.13;15.88;;;8.40;99.90;;;;;;4976183;28;20290;-92
2022/11/08 13:01:32;;;;;;;19.55;17.50;;;8.50;99.90;;;;;;4975991;28;20299;-92
2022/11/08 13:04:27;;;;;;;21.05;16.75;;;8.50;99.90;;;;;;4976048;28;20322;-93
2022/11/08 13:06:59;;;;;;;20.35;16.48;;;8.50;99.90;;;;;;4975765;28;20204;-93
2022/11/08 13:09:37;;;;;;;20.92;17.13;;;8.50;99.90;;;;;;4976265;28;20219;-92
2022/11/08 13:12:16;;;;;;;19.90;16.98;;;8.50;99.90;;;;;;4975854;28;20204;-92
2022/11/08 13:14:44;;;;;;;21.50;17.63;;;8.50;99.90;;;;;;4975788;28;20238;-92
2022/11/08 13:17:17;;;;;;;23.27;18.80;;;8.40;99.90;;;;;;4975711;28;20238;-92
2022/11/08 13:19:58;;;;;;;22.58;17.88;;;8.50;99.90;;;;;;4975573;28;20235;-92
2022/11/08 13:22:57;;;;;;;23.52;18.70;;;8.50;99.90;;;;;;4975885;28;20214;-92
2022/11/08 13:25:37;;;;;;;26.52;19.25;;;8.50;99.90;;;;;;4975858;28;20219;-93
2022/11/08 13:28:38;;;;;;;20.27;17.83;;;8.50;99.90;;;;;;4975497;28;20208;-92
2022/11/08 13:31:32;;;;;;;25.15;18.77;;;8.50;99.90;;;;;;4975552;28;20205;-92